Terminal Aerodrome Forecast
Issued by NWS

Home | Current Version | Previous Version | Text Only | Print | Product List | Glossary On
Versions: 1 2 3 4 5 6 7 8 9 10 11 12 13 14 15 16
000
FTUS44 KSJT 062300
TAFBBD
TAF
KBBD 062320Z 0700/0724 18012G18KT P6SM SCT035 BKN040
     FM070300 14012KT P6SM BKN015
     FM070700 14011KT P6SM OVC007
     FM071000 14012KT 4SM BR OVC007
     FM071500 15012KT P6SM BKN015
     FM072000 15013KT P6SM BKN050=

USA.gov is the U.S. government's official web portal to all federal, state and local government web resources and services.